Terminal Aerodrome Forecast
Issued by NWS Charleston, WV

Current Version | Previous Version | Graphics & Text | Print | Product List | Glossary On
Versions: 1 2 3 4 5 6 7 8 9 10 11 12 13 14 15 16 17 18 19 20 21 22 23 24 25
000
FTUS41 KRLX 202300
TAFEKN
TAF
KEKN 202339Z 2100/2124 30007KT P6SM SKC
     FM210100 28008KT P6SM BKN025
      TEMPO 2101/2103 BKN035
     FM210300 28009KT P6SM -SHSN BKN015
     FM210600 28008KT 4SM -SHSN BKN015
     FM211000 29008KT 6SM -SHSN BKN025
     FM211100 29006KT P6SM BKN025
     FM212000 28004KT P6SM SCT025
     FM212300 00000KT P6SM FEW040=

USA.gov is the U.S. government's official web portal to all federal, state and local government web resources and services.